createdAt,value
2023-01-20T00:01:40.264Z,6.80
2023-01-20T00:04:06.878Z,6.07
2023-01-20T00:06:33.522Z,6.43
2023-01-20T00:09:02.462Z,6.30
2023-01-20T00:11:29.442Z,5.63
2023-01-20T00:13:59.785Z,5.73
2023-01-20T00:16:27.855Z,6.57
2023-01-20T00:18:54.932Z,6.17
2023-01-20T00:21:21.777Z,6.77
2023-01-20T00:23:49.320Z,6.00
2023-01-20T00:26:22.403Z,7.10
2023-01-20T00:28:52.439Z,7.37
2023-01-20T00:31:31.129Z,6.70
2023-01-20T00:34:00.532Z,6.80
2023-01-20T00:36:32.968Z,6.37
2023-01-20T00:39:01.398Z,7.33
2023-01-20T00:41:27.969Z,7.77
2023-01-20T00:43:54.441Z,8.30
2023-01-20T00:46:22.206Z,6.60
2023-01-20T00:48:48.990Z,5.87
2023-01-20T00:51:15.959Z,6.17
2023-01-20T00:53:42.439Z,7.27
2023-01-20T00:56:08.919Z,6.47
2023-01-20T00:58:35.387Z,7.50
2023-01-20T01:01:02.493Z,6.50
2023-01-20T01:03:29.688Z,5.80
2023-01-20T01:06:08.431Z,6.63
2023-01-20T01:08:35.285Z,7.30
2023-01-20T01:11:02.435Z,7.37
2023-01-20T01:13:28.896Z,8.67
2023-01-20T01:15:55.426Z,8.03
2023-01-20T01:18:21.935Z,6.90
2023-01-20T01:20:48.395Z,7.13
2023-01-20T01:23:14.879Z,6.70
2023-01-20T01:25:41.367Z,7.37
2023-01-20T01:28:07.818Z,7.73
2023-01-20T01:30:34.400Z,6.13
2023-01-20T01:33:00.875Z,6.17
2023-01-20T01:35:27.332Z,6.50
2023-01-20T01:37:53.906Z,5.93
2023-01-20T01:40:20.391Z,6.50
2023-01-20T01:42:46.865Z,7.07
2023-01-20T01:45:24.432Z,6.70
2023-01-20T01:48:02.572Z,5.50
2023-01-20T01:50:47.720Z,7.13
2023-01-20T01:53:15.479Z,7.20
2023-01-20T01:55:51.006Z,7.10
2023-01-20T01:58:24.007Z,7.30
2023-01-20T02:00:50.642Z,7.40
2023-01-20T02:03:17.519Z,7.20
2023-01-20T02:05:47.144Z,6.73
2023-01-20T02:08:13.823Z,6.70
2023-01-20T02:10:40.300Z,6.70
2023-01-20T02:13:06.882Z,7.50
2023-01-20T02:16:04.411Z,6.70
2023-01-20T02:21:59.075Z,7.40
2023-01-20T02:25:44.219Z,6.17
2023-01-20T02:29:11.858Z,5.43
2023-01-20T02:34:15.620Z,5.80
2023-01-20T02:37:17.749Z,6.03
2023-01-20T02:40:31.243Z,5.70
2023-01-20T02:44:33.961Z,6.43
2023-01-20T02:47:34.483Z,6.37
2023-01-20T02:51:40.726Z,6.37
2023-01-20T02:54:13.058Z,6.50
2023-01-20T02:56:40.445Z,6.13
2023-01-20T02:59:15.877Z,6.20
2023-01-20T03:01:57.151Z,5.83
2023-01-20T03:04:32.739Z,6.30
2023-01-20T03:07:00.908Z,6.37
2023-01-20T03:09:36.861Z,5.80
2023-01-20T03:12:17.027Z,6.20
2023-01-20T03:14:43.699Z,5.70
2023-01-20T03:17:10.293Z,6.17
2023-01-20T03:19:39.537Z,5.57
2023-01-20T03:22:06.356Z,4.77
2023-01-20T03:24:37.050Z,4.73
2023-01-20T03:27:04.636Z,4.70
2023-01-20T03:29:31.835Z,5.90
2023-01-20T03:32:01.596Z,5.50
2023-01-20T03:34:33.852Z,5.23
2023-01-20T03:37:03.038Z,5.73
2023-01-20T03:39:30.977Z,5.53
2023-01-20T03:42:18.515Z,5.03
2023-01-20T03:46:06.142Z,5.37
2023-01-20T03:50:54.712Z,4.63
2023-01-20T03:53:45.118Z,4.80
2023-01-20T03:56:34.555Z,4.40
2023-01-20T03:59:04.469Z,5.13
2023-01-20T04:01:40.680Z,5.13
2023-01-20T04:04:15.596Z,4.73
2023-01-20T04:06:44.362Z,4.50
2023-01-20T04:09:20.097Z,4.90
2023-01-20T04:11:46.982Z,4.93
2023-01-20T04:14:13.463Z,5.50
2023-01-20T04:16:40.310Z,6.03
2023-01-20T04:19:06.784Z,5.33
2023-01-20T04:21:47.182Z,5.70
2023-01-20T04:24:52.914Z,5.00
2023-01-20T04:27:19.435Z,5.00
2023-01-20T04:29:45.937Z,5.00
2023-01-20T04:32:12.736Z,5.93
2023-01-20T04:34:39.560Z,5.23
2023-01-20T04:37:06.068Z,5.60
2023-01-20T04:39:32.613Z,6.03
2023-01-20T04:41:59.126Z,5.20
2023-01-20T04:44:25.617Z,5.87
2023-01-20T04:46:57.029Z,4.50
2023-01-20T04:49:23.534Z,4.73
2023-01-20T04:51:50.032Z,4.83
2023-01-20T04:54:16.531Z,4.60
2023-01-20T04:56:43.394Z,5.33
2023-01-20T04:59:09.930Z,5.03
2023-01-20T05:01:36.566Z,4.63
2023-01-20T05:04:03.098Z,4.57
2023-01-20T05:06:29.586Z,4.93
2023-01-20T05:08:56.050Z,5.37
2023-01-20T05:11:22.575Z,5.70
2023-01-20T05:13:49.032Z,5.10
2023-01-20T05:16:21.057Z,5.33
2023-01-20T05:18:47.529Z,5.27
2023-01-20T05:21:14.031Z,4.93
2023-01-20T05:23:40.513Z,4.80
2023-01-20T05:26:06.990Z,4.73
2023-01-20T05:28:33.446Z,4.77
2023-01-20T05:30:59.983Z,4.63
2023-01-20T05:33:26.567Z,12.23
2023-01-20T05:35:55.792Z,8.20
2023-01-20T05:38:22.569Z,6.40
2023-01-20T05:40:49.041Z,5.80
2023-01-20T05:43:15.546Z,5.60
2023-01-20T05:45:42.263Z,6.77
2023-01-20T05:48:08.737Z,8.10
2023-01-20T05:50:35.211Z,5.43
2023-01-20T05:53:01.658Z,6.93
2023-01-20T05:55:28.141Z,6.30
2023-01-20T05:57:54.608Z,7.20
2023-01-20T06:00:21.849Z,11.17
2023-01-20T06:02:48.352Z,14.07
2023-01-20T06:05:15.221Z,12.80
2023-01-20T06:07:41.808Z,5.63
2023-01-20T06:10:09.423Z,7.40
2023-01-20T06:12:35.906Z,7.60
2023-01-20T06:15:03.455Z,8.27
2023-01-20T06:17:29.933Z,8.10
2023-01-20T06:19:56.521Z,8.33
2023-01-20T06:22:23.009Z,7.53
2023-01-20T06:24:50.178Z,6.73
2023-01-20T06:27:16.904Z,6.97
2023-01-20T06:29:43.451Z,7.83
2023-01-20T06:32:10.986Z,6.93
2023-01-20T06:34:37.476Z,6.23
2023-01-20T06:37:03.945Z,5.70
2023-01-20T06:39:30.416Z,5.20
2023-01-20T06:42:00.615Z,7.97
2023-01-20T06:44:27.156Z,7.43
2023-01-20T06:46:53.673Z,6.83
2023-01-20T06:49:20.152Z,6.90
2023-01-20T06:51:48.031Z,6.87
2023-01-20T06:54:17.595Z,6.77
2023-01-20T06:56:44.370Z,7.30
2023-01-20T06:59:11.610Z,6.37
2023-01-20T07:01:39.055Z,6.27
2023-01-20T07:04:07.427Z,6.93
2023-01-20T07:06:39.605Z,6.30
2023-01-20T07:09:12.082Z,6.90
2023-01-20T07:11:39.200Z,6.80
2023-01-20T07:14:06.909Z,7.03
2023-01-20T07:16:34.389Z,6.90
2023-01-20T07:19:00.996Z,6.90
2023-01-20T07:21:27.993Z,7.10
2023-01-20T07:23:54.539Z,7.50
2023-01-20T07:26:25.558Z,7.23
2023-01-20T07:28:52.186Z,7.70
2023-01-20T07:31:27.263Z,6.60
2023-01-20T07:33:57.622Z,6.63
2023-01-20T07:36:24.562Z,5.47
2023-01-20T07:38:52.195Z,5.70
2023-01-20T07:41:19.968Z,6.40
2023-01-20T07:43:51.109Z,5.83
2023-01-20T07:46:18.541Z,6.33
2023-01-20T07:48:45.448Z,6.13
2023-01-20T07:51:15.288Z,6.13
2023-01-20T07:53:48.771Z,6.10
2023-01-20T07:56:33.100Z,6.60
2023-01-20T07:59:00.004Z,6.13
2023-01-20T08:01:30.163Z,5.70
2023-01-20T08:04:02.242Z,4.87
2023-01-20T08:06:29.694Z,5.73
2023-01-20T08:09:00.567Z,7.10
2023-01-20T08:11:27.292Z,8.43
2023-01-20T08:13:53.830Z,9.47
2023-01-20T08:16:20.881Z,8.80
2023-01-20T08:18:47.746Z,9.50
2023-01-20T08:21:33.187Z,8.63
2023-01-20T08:24:03.387Z,8.80
2023-01-20T08:26:30.837Z,7.77
2023-01-20T08:29:08.086Z,7.90
2023-01-20T08:31:35.304Z,7.97
2023-01-20T08:34:01.943Z,7.43
2023-01-20T08:36:35.121Z,6.97
2023-01-20T08:39:04.890Z,8.60
2023-01-20T08:41:35.873Z,7.07
2023-01-20T08:44:05.868Z,6.67
2023-01-20T08:46:33.295Z,6.73
2023-01-20T08:49:00.079Z,5.90
2023-01-20T08:51:30.905Z,6.20
2023-01-20T08:53:58.208Z,6.23
2023-01-20T08:56:25.082Z,6.80
2023-01-20T08:58:53.186Z,6.17
2023-01-20T09:01:26.920Z,6.07
2023-01-20T09:04:05.492Z,5.90
2023-01-20T09:06:49.396Z,6.47
2023-01-20T09:09:19.120Z,6.47
2023-01-20T09:11:50.039Z,6.03
2023-01-20T09:14:21.818Z,5.93
2023-01-20T09:16:51.862Z,4.63
2023-01-20T09:19:18.336Z,4.53
2023-01-20T09:21:44.826Z,4.50
2023-01-20T09:24:11.568Z,4.13
2023-01-20T09:26:38.077Z,4.80
2023-01-20T09:29:10.057Z,4.63
2023-01-20T09:31:43.902Z,3.90
2023-01-20T09:34:18.424Z,3.50
2023-01-20T09:36:45.498Z,3.40
2023-01-20T09:39:32.517Z,5.40
2023-01-20T09:42:29.882Z,4.73
2023-01-20T09:45:25.817Z,5.07
2023-01-20T09:48:36.790Z,5.47
2023-01-20T09:51:36.859Z,4.87
2023-01-20T09:54:22.792Z,4.97
2023-01-20T09:56:55.369Z,5.27
2023-01-20T09:59:40.421Z,5.30
2023-01-20T10:02:20.445Z,5.13
2023-01-20T10:04:54.117Z,5.40
2023-01-20T10:07:50.263Z,5.03
2023-01-20T10:10:45.999Z,5.03
2023-01-20T10:13:24.727Z,4.90
2023-01-20T10:15:56.184Z,4.40
2023-01-20T10:18:50.558Z,4.50
2023-01-20T10:21:45.039Z,3.93
2023-01-20T10:24:30.429Z,4.37
2023-01-20T10:27:04.328Z,4.63
2023-01-20T10:29:53.601Z,4.50
2023-01-20T10:32:35.947Z,4.60
2023-01-20T10:35:16.947Z,4.33
2023-01-20T10:37:43.682Z,4.40
2023-01-20T10:42:52.609Z,4.17
2023-01-20T10:51:22.435Z,4.13
2023-01-20T10:56:01.444Z,4.27
2023-01-20T10:58:32.985Z,4.13
2023-01-20T11:01:04.640Z,4.10
2023-01-20T11:03:46.065Z,4.67
2023-01-20T11:06:25.985Z,4.60
2023-01-20T11:08:53.847Z,3.80
2023-01-20T11:11:28.767Z,4.23
2023-01-20T11:13:56.684Z,4.27
2023-01-20T11:16:30.733Z,4.27
2023-01-20T11:19:07.854Z,4.17
2023-01-20T11:21:36.202Z,3.87
2023-01-20T11:24:40.655Z,4.33
2023-01-20T11:27:18.486Z,4.13
2023-01-20T11:30:08.189Z,3.80
2023-01-20T11:32:39.292Z,4.07
2023-01-20T11:35:24.489Z,4.40
2023-01-20T11:37:51.891Z,4.20
2023-01-20T11:40:28.059Z,4.47
2023-01-20T11:42:55.106Z,4.57
2023-01-20T11:45:35.995Z,4.20
2023-01-20T11:48:23.338Z,3.77
2023-01-20T11:51:01.038Z,4.97
2023-01-20T11:53:32.961Z,3.90
2023-01-20T11:56:19.567Z,4.00
2023-01-20T11:59:01.117Z,4.13
2023-01-20T12:01:49.067Z,4.40
2023-01-20T12:07:03.959Z,4.60
2023-01-20T12:09:40.553Z,4.70
2023-01-20T12:12:37.440Z,4.57
2023-01-20T12:15:23.484Z,4.13
2023-01-20T12:19:03.580Z,4.63
2023-01-20T12:21:40.456Z,4.50
2023-01-20T12:24:35.319Z,5.77
2023-01-20T12:27:25.016Z,4.73
2023-01-20T12:30:01.255Z,3.07
2023-01-20T12:32:28.498Z,2.80
2023-01-20T12:34:55.185Z,2.73
2023-01-20T12:37:50.393Z,2.53
2023-01-20T12:40:47.226Z,2.57
2023-01-20T12:47:20.563Z,2.43
2023-01-20T12:54:10.653Z,2.70
2023-01-20T12:58:47.173Z,2.90
2023-01-20T13:01:49.079Z,2.87
2023-01-20T13:05:44.735Z,2.40
2023-01-20T13:10:19.622Z,2.33
2023-01-20T13:14:20.806Z,2.53
2023-01-20T13:18:53.011Z,2.53
2023-01-20T13:21:20.536Z,1.70
2023-01-20T13:23:50.076Z,1.93
2023-01-20T13:26:17.552Z,2.57
2023-01-20T13:28:53.781Z,3.03
2023-01-20T13:31:52.654Z,1.90
2023-01-20T13:34:39.492Z,2.27
2023-01-20T13:37:55.595Z,2.17
2023-01-20T13:42:48.418Z,1.97
2023-01-20T13:45:21.946Z,1.83
2023-01-20T13:48:02.133Z,2.20
2023-01-20T13:50:37.754Z,2.30
2023-01-20T13:53:27.343Z,2.50
2023-01-20T13:55:59.000Z,2.13
2023-01-20T13:58:31.430Z,1.80
2023-01-20T14:01:14.241Z,2.50
2023-01-20T14:03:41.539Z,1.97
2023-01-20T14:06:48.929Z,2.83
2023-01-20T14:09:24.169Z,2.40
2023-01-20T14:11:56.364Z,2.73
2023-01-20T14:14:26.000Z,1.90
2023-01-20T14:16:52.923Z,2.63
2023-01-20T14:19:31.459Z,2.50
2023-01-20T14:22:03.051Z,2.13
2023-01-20T14:24:46.449Z,2.53
2023-01-20T14:27:32.740Z,2.53
2023-01-20T14:30:19.698Z,2.60
2023-01-20T14:32:46.743Z,2.33
2023-01-20T14:35:31.124Z,2.70
2023-01-20T14:37:58.971Z,2.63
2023-01-20T14:40:35.020Z,1.97
2023-01-20T14:43:21.782Z,2.03
2023-01-20T14:45:52.346Z,2.40
2023-01-20T14:48:33.391Z,2.43
2023-01-20T14:51:03.390Z,2.10
2023-01-20T14:53:29.866Z,2.30
2023-01-20T14:56:06.714Z,2.70
2023-01-20T14:58:35.414Z,3.60
2023-01-20T15:01:05.864Z,2.87
2023-01-20T15:03:33.010Z,3.23
2023-01-20T15:06:16.930Z,2.40
2023-01-20T15:09:05.195Z,2.70
2023-01-20T15:11:33.194Z,2.70
2023-01-20T15:14:09.740Z,2.40
2023-01-20T15:16:48.599Z,2.73
2023-01-20T15:19:29.042Z,3.20
2023-01-20T15:22:15.557Z,3.70
2023-01-20T15:24:46.441Z,2.80
2023-01-20T15:27:26.977Z,2.53
2023-01-20T15:30:26.516Z,3.17
2023-01-20T15:32:54.593Z,3.70
2023-01-20T15:35:25.209Z,3.00
2023-01-20T15:37:52.421Z,2.73
2023-01-20T15:40:24.036Z,3.93
2023-01-20T15:42:52.542Z,3.50
2023-01-20T15:45:19.334Z,3.40
2023-01-20T15:47:46.453Z,3.73
2023-01-20T15:50:18.173Z,3.30
2023-01-20T15:52:44.775Z,3.93
2023-01-20T15:55:14.390Z,3.03
2023-01-20T15:57:41.804Z,2.83
2023-01-20T16:00:20.720Z,3.60
2023-01-20T16:02:47.202Z,2.90
2023-01-20T16:05:17.157Z,2.57
2023-01-20T16:07:46.172Z,2.67
2023-01-20T16:10:18.187Z,3.33
2023-01-20T16:12:45.761Z,2.83
2023-01-20T16:15:17.587Z,2.63
2023-01-20T16:17:44.781Z,3.03
2023-01-20T16:20:22.769Z,3.37
2023-01-20T16:22:49.440Z,3.20
2023-01-20T16:25:16.161Z,3.07
2023-01-20T16:27:43.036Z,3.40
2023-01-20T16:30:21.841Z,3.43
2023-01-20T16:32:48.340Z,3.20
2023-01-20T16:35:16.673Z,3.20
2023-01-20T16:37:46.723Z,3.53
2023-01-20T16:40:18.346Z,4.10
2023-01-20T16:42:46.054Z,2.93
2023-01-20T16:45:27.308Z,3.70
2023-01-20T16:47:55.423Z,3.43
2023-01-20T16:50:21.923Z,2.37
2023-01-20T16:52:48.557Z,2.13
2023-01-20T16:55:15.096Z,2.70
2023-01-20T16:57:42.310Z,2.83
2023-01-20T17:00:09.885Z,3.40
2023-01-20T17:02:38.268Z,4.90
2023-01-20T17:05:07.292Z,4.67
2023-01-20T17:07:34.491Z,4.57
2023-01-20T17:10:00.999Z,4.07
2023-01-20T17:12:28.799Z,4.67
2023-01-20T17:14:55.280Z,5.57
2023-01-20T17:17:22.137Z,4.70
2023-01-20T17:19:48.588Z,3.50
2023-01-20T17:22:16.498Z,4.60
2023-01-20T17:24:42.956Z,3.83
2023-01-20T17:27:09.429Z,4.10
2023-01-20T17:29:36.039Z,4.17
2023-01-20T17:32:02.557Z,2.50
2023-01-20T17:34:29.049Z,4.00
2023-01-20T17:36:55.529Z,3.17
2023-01-20T17:39:21.983Z,4.07
2023-01-20T17:41:48.471Z,4.33
2023-01-20T17:44:15.075Z,4.00
2023-01-20T17:46:41.561Z,4.03
2023-01-20T17:49:08.255Z,2.93
2023-01-20T17:51:34.943Z,3.13
2023-01-20T17:54:03.773Z,3.93
2023-01-20T17:56:30.985Z,5.00
2023-01-20T17:58:57.445Z,4.30
2023-01-20T18:01:28.244Z,4.77
2023-01-20T18:03:57.951Z,4.20
2023-01-20T18:06:27.049Z,4.80
2023-01-20T18:08:56.600Z,7.13
2023-01-20T18:11:26.243Z,3.30
2023-01-20T18:13:55.712Z,4.80
2023-01-20T18:16:27.307Z,4.10
2023-01-20T18:18:57.927Z,4.57
2023-01-20T18:21:31.233Z,4.50
2023-01-20T18:23:59.611Z,4.67
2023-01-20T18:26:30.855Z,5.00
2023-01-20T18:29:06.577Z,4.00
2023-01-20T18:31:34.111Z,3.80
2023-01-20T18:34:04.890Z,4.00
2023-01-20T18:36:38.049Z,3.77
2023-01-20T18:39:20.393Z,4.67
2023-01-20T18:41:48.681Z,4.37
2023-01-20T18:44:16.217Z,5.83
2023-01-20T18:46:42.708Z,5.17
2023-01-20T18:49:13.517Z,3.27
2023-01-20T18:51:41.488Z,4.37
2023-01-20T18:54:12.444Z,3.17
2023-01-20T18:56:39.626Z,2.53
2023-01-20T18:59:07.123Z,3.93
2023-01-20T19:01:38.794Z,2.83
2023-01-20T19:04:09.182Z,2.93
2023-01-20T19:06:41.196Z,2.83
2023-01-20T19:09:08.792Z,2.07
2023-01-20T19:11:39.005Z,2.17
2023-01-20T19:14:10.313Z,2.60
2023-01-20T19:16:38.407Z,2.63
2023-01-20T19:19:07.079Z,3.40
2023-01-20T19:21:35.713Z,3.30
2023-01-20T19:24:05.164Z,3.50
2023-01-20T19:26:34.727Z,3.67
2023-01-20T19:29:05.114Z,2.70
2023-01-20T19:31:35.411Z,2.30
2023-01-20T19:34:02.918Z,2.33
2023-01-20T19:36:29.783Z,3.07
2023-01-20T19:38:56.835Z,2.27
2023-01-20T19:41:27.050Z,2.70
2023-01-20T19:43:59.311Z,2.37
2023-01-20T19:46:29.571Z,2.03
2023-01-20T19:48:58.064Z,2.63
2023-01-20T19:51:25.995Z,3.13
2023-01-20T19:53:57.233Z,2.43
2023-01-20T19:56:27.654Z,2.67
2023-01-20T19:58:55.051Z,2.50
2023-01-20T20:01:31.648Z,2.80
2023-01-20T20:03:58.994Z,2.67
2023-01-20T20:06:38.440Z,2.47
2023-01-20T20:09:15.227Z,3.20
2023-01-20T20:11:42.466Z,2.87
2023-01-20T20:14:14.236Z,2.53
2023-01-20T20:16:40.876Z,2.37
2023-01-20T20:19:11.757Z,1.77
2023-01-20T20:21:38.220Z,2.03
2023-01-20T20:24:05.240Z,2.30
2023-01-20T20:26:35.882Z,2.30
2023-01-20T20:29:05.334Z,1.73
2023-01-20T20:31:33.435Z,2.33
2023-01-20T20:34:02.263Z,1.87
2023-01-20T20:36:32.087Z,2.00
2023-01-20T20:39:00.305Z,1.90
2023-01-20T20:41:30.304Z,1.90
2023-01-20T20:43:58.604Z,2.60
2023-01-20T20:46:25.707Z,1.80
2023-01-20T20:49:00.242Z,1.80
2023-01-20T20:51:30.868Z,1.60
2023-01-20T20:53:59.649Z,1.93
2023-01-20T20:56:30.591Z,1.90
2023-01-20T20:59:02.761Z,2.13
2023-01-20T21:01:33.254Z,2.00
2023-01-20T21:04:01.074Z,2.13
2023-01-20T21:06:27.977Z,1.90
2023-01-20T21:08:54.489Z,1.70
2023-01-20T21:11:21.170Z,2.33
2023-01-20T21:13:48.591Z,3.23
2023-01-20T21:16:21.093Z,2.23
2023-01-20T21:18:48.797Z,2.30
2023-01-20T21:21:21.543Z,2.60
2023-01-20T21:23:56.569Z,2.10
2023-01-20T21:26:28.845Z,4.17
2023-01-20T21:28:56.442Z,2.10
2023-01-20T21:31:25.876Z,2.70
2023-01-20T21:33:57.485Z,2.20
2023-01-20T21:36:26.437Z,3.37
2023-01-20T21:38:53.257Z,5.50
2023-01-20T21:41:20.099Z,6.30
2023-01-20T21:44:06.285Z,6.80
2023-01-20T21:46:39.825Z,4.40
2023-01-20T21:49:26.042Z,3.80
2023-01-20T21:52:11.455Z,2.30
2023-01-20T21:54:39.773Z,2.10
2023-01-20T21:57:06.295Z,2.07
2023-01-20T21:59:32.760Z,2.83
2023-01-20T22:01:59.270Z,3.07
2023-01-20T22:04:25.826Z,3.47
2023-01-20T22:06:52.315Z,6.60
2023-01-20T22:09:18.763Z,2.10
2023-01-20T22:11:45.240Z,1.93
2023-01-20T22:14:11.772Z,2.77
2023-01-20T22:16:38.288Z,2.40
2023-01-20T22:19:04.878Z,1.80
2023-01-20T22:21:32.392Z,1.90
2023-01-20T22:24:00.943Z,2.13
2023-01-20T22:26:27.412Z,1.43
2023-01-20T22:28:53.869Z,1.70
2023-01-20T22:31:22.691Z,1.67
2023-01-20T22:33:54.723Z,1.80
2023-01-20T22:36:22.943Z,1.40
2023-01-20T22:38:51.619Z,1.60
2023-01-20T22:41:19.918Z,1.63
2023-01-20T22:43:47.241Z,1.57
2023-01-20T22:46:16.931Z,1.57
2023-01-20T22:48:44.482Z,1.73
2023-01-20T22:51:20.393Z,1.70
2023-01-20T22:53:47.527Z,1.80
2023-01-20T22:56:17.456Z,1.60
2023-01-20T22:58:44.584Z,1.80
2023-01-20T23:01:24.948Z,1.50
2023-01-20T23:04:00.570Z,1.60
2023-01-20T23:06:31.698Z,1.53
2023-01-20T23:09:03.734Z,1.80
2023-01-20T23:11:30.860Z,1.50
2023-01-20T23:13:57.576Z,1.73
2023-01-20T23:16:24.188Z,1.90
2023-01-20T23:18:51.710Z,1.87
2023-01-20T23:21:19.714Z,1.93
2023-01-20T23:23:48.558Z,1.80
2023-01-20T23:26:18.656Z,1.40
2023-01-20T23:28:46.766Z,1.90
2023-01-20T23:31:16.456Z,1.50
2023-01-20T23:33:44.193Z,1.50
2023-01-20T23:36:15.783Z,1.77
2023-01-20T23:38:43.781Z,1.57
2023-01-20T23:41:12.144Z,1.43
2023-01-20T23:43:39.643Z,1.60
2023-01-20T23:46:06.994Z,1.50
2023-01-20T23:48:35.020Z,1.50
2023-01-20T23:51:02.955Z,1.90
2023-01-20T23:53:32.582Z,2.23
2023-01-20T23:56:06.338Z,1.80
2023-01-20T23:58:33.053Z,1.70
